createdAt,value
2023-04-27T00:00:38.551Z,99051.78
2023-04-27T00:03:12.289Z,99058.97
2023-04-27T00:05:45.658Z,99059.88
2023-04-27T00:08:18.858Z,99051.53
2023-04-27T00:10:52.286Z,99064.25
2023-04-27T00:13:25.078Z,99060.34
2023-04-27T00:16:01.006Z,99071.28
2023-04-27T00:18:34.189Z,99069.31
2023-04-27T00:21:07.775Z,99066.69
2023-04-27T00:23:40.770Z,99067.53
2023-04-27T00:26:13.552Z,99076.34
2023-04-27T00:28:46.954Z,99084.78
2023-04-27T00:31:21.908Z,99078.34
2023-04-27T00:33:54.637Z,99080.47
2023-04-27T00:36:27.732Z,99086.78
2023-04-27T00:39:00.759Z,99088.75
2023-04-27T00:41:33.802Z,99084.78
2023-04-27T00:44:07.088Z,99088.44
2023-04-27T00:46:41.517Z,99099.66
2023-04-27T00:49:14.848Z,99105.59
2023-04-27T00:51:47.724Z,99102.78
2023-04-27T00:54:21.267Z,99118.19
2023-04-27T00:56:54.457Z,99112.31
2023-04-27T00:59:27.290Z,99121.53
2023-04-27T01:02:01.956Z,99122.66
2023-04-27T01:04:37.051Z,99126.47
2023-04-27T01:07:10.241Z,99131.09
2023-04-27T01:09:43.244Z,99129.97
2023-04-27T01:12:15.988Z,99132.78
2023-04-27T01:14:48.836Z,99136.56
2023-04-27T01:17:24.901Z,99136.41
2023-04-27T01:19:59.704Z,99148.19
2023-04-27T01:22:32.519Z,99148.88
2023-04-27T01:25:07.998Z,99155.72
2023-04-27T01:27:42.153Z,99158.41
2023-04-27T01:30:16.054Z,99162.22
2023-04-27T01:32:48.957Z,99168.25
2023-04-27T01:35:21.795Z,99171.19
2023-04-27T01:37:54.615Z,99165.16
2023-04-27T01:40:29.445Z,99170.34
2023-04-27T01:43:02.302Z,99175.84
2023-04-27T01:45:35.410Z,99172.59
2023-04-27T01:48:08.447Z,99176.25
2023-04-27T01:50:41.416Z,99180.75
2023-04-27T01:53:14.488Z,99178.63
2023-04-27T01:55:48.725Z,99185.38
2023-04-27T01:58:21.809Z,99186.47
2023-04-27T02:00:55.115Z,99182.72
2023-04-27T02:03:28.456Z,99188.28
2023-04-27T02:06:01.702Z,99190.56
2023-04-27T02:08:35.385Z,99192.22
2023-04-27T02:11:09.540Z,99197.16
2023-04-27T02:13:42.413Z,99193.09
2023-04-27T02:16:15.771Z,99196.44
2023-04-27T02:18:49.271Z,99201.31
2023-04-27T02:21:22.503Z,99200.91
2023-04-27T02:23:55.264Z,99211.75
2023-04-27T02:26:29.704Z,99208.69
2023-04-27T02:29:03.825Z,99211.56
2023-04-27T02:31:37.696Z,99211.56
2023-04-27T02:34:10.612Z,99211.09
2023-04-27T02:36:43.639Z,99218.81
2023-04-27T02:39:17.566Z,99221.63
2023-04-27T02:41:51.867Z,99223.03
2023-04-27T02:44:24.904Z,99225.28
2023-04-27T02:46:58.069Z,99228.63
2023-04-27T02:49:31.048Z,99237.59
2023-04-27T02:52:04.496Z,99235.78
2023-04-27T02:54:37.389Z,99240.78
2023-04-27T02:57:11.542Z,99238.88
2023-04-27T02:59:44.344Z,99242.41
2023-04-27T03:02:18.148Z,99246.59
2023-04-27T03:04:53.840Z,99253.56
2023-04-27T03:07:26.803Z,99248.13
2023-04-27T03:09:59.724Z,99262.06
2023-04-27T03:12:34.023Z,99257.56
2023-04-27T03:15:07.879Z,99269.38
2023-04-27T03:17:41.072Z,99269.47
2023-04-27T03:20:14.145Z,99266.41
2023-04-27T03:22:46.942Z,99273.88
2023-04-27T03:25:19.942Z,99274.94
2023-04-27T03:27:54.126Z,99270.84
2023-04-27T03:30:27.199Z,99274.06
2023-04-27T03:33:01.156Z,99277.78
2023-04-27T03:35:34.060Z,99289.34
2023-04-27T03:38:06.850Z,99282.53
2023-04-27T03:40:39.834Z,99286.34
2023-04-27T03:43:14.473Z,99287.59
2023-04-27T03:45:47.868Z,99291.88
2023-04-27T03:48:21.847Z,99297.84
2023-04-27T03:50:54.565Z,99299.75
2023-04-27T03:53:27.464Z,99300.91
2023-04-27T03:56:00.894Z,99303.47
2023-04-27T03:58:35.170Z,99311.66
2023-04-27T04:01:10.203Z,99308.69
2023-04-27T04:03:43.704Z,99311.28
2023-04-27T04:06:16.684Z,99313.19
2023-04-27T04:08:49.760Z,99306.66
2023-04-27T04:11:23.137Z,99315.47
2023-04-27T04:13:57.320Z,99325.41
2023-04-27T04:16:30.445Z,99325.03
2023-04-27T04:19:03.694Z,99322.75
2023-04-27T04:21:36.548Z,99329.78
2023-04-27T04:24:10.307Z,99332.25
2023-04-27T04:26:44.149Z,99333.75
2023-04-27T04:29:18.315Z,99323.38
2023-04-27T04:31:51.392Z,99334.16
2023-04-27T04:34:25.127Z,99332.19
2023-04-27T04:36:58.391Z,99335.03
2023-04-27T04:39:31.937Z,99335.88
2023-04-27T04:42:05.520Z,99342.94
2023-04-27T04:44:40.182Z,99349.03
2023-04-27T04:47:13.350Z,99343.63
2023-04-27T04:49:46.602Z,99350.94
2023-04-27T04:52:19.356Z,99353.75
2023-04-27T04:54:52.952Z,99359.34
2023-04-27T04:57:25.947Z,99358.34
2023-04-27T05:00:00.309Z,99367.63
2023-04-27T05:02:33.577Z,99363.31
2023-04-27T05:05:06.988Z,99378.78
2023-04-27T05:07:39.898Z,99382.00
2023-04-27T05:10:12.705Z,99381.59
2023-04-27T05:12:45.722Z,99379.75
2023-04-27T05:15:20.217Z,99385.22
2023-04-27T05:17:54.373Z,99376.41
2023-04-27T05:20:27.459Z,99379.56
2023-04-27T05:23:00.371Z,99389.38
2023-04-27T05:25:33.282Z,99391.50
2023-04-27T05:28:06.153Z,99384.44
2023-04-27T05:30:40.462Z,99394.59
2023-04-27T05:33:13.698Z,99396.91
2023-04-27T05:35:46.815Z,99396.47
2023-04-27T05:38:19.651Z,99403.88
2023-04-27T05:40:55.678Z,99397.78
2023-04-27T05:43:28.668Z,99403.09
2023-04-27T05:46:02.811Z,99399.59
2023-04-27T05:48:35.836Z,99405.09
2023-04-27T05:51:09.146Z,99403.28
2023-04-27T05:53:42.465Z,99405.09
2023-04-27T05:56:15.387Z,99409.88
2023-04-27T05:58:48.536Z,99409.84
2023-04-27T06:01:23.543Z,99413.63
2023-04-27T06:04:01.631Z,99406.59
2023-04-27T06:06:35.588Z,99401.69
2023-04-27T06:09:08.561Z,99404.25
2023-04-27T06:11:41.508Z,99404.53
2023-04-27T06:14:15.148Z,99413.66
2023-04-27T06:16:49.797Z,99413.09
2023-04-27T06:19:22.863Z,99413.75
2023-04-27T06:21:56.175Z,99420.38
2023-04-27T06:24:29.088Z,99415.06
2023-04-27T06:27:02.007Z,99412.09
2023-04-27T06:29:35.540Z,99415.63
2023-04-27T06:32:09.856Z,99417.97
2023-04-27T06:34:42.952Z,99415.63
2023-04-27T06:37:17.267Z,99419.97
2023-04-27T06:39:50.228Z,99423.09
2023-04-27T06:42:23.294Z,99426.16
2023-04-27T06:44:56.585Z,99428.53
2023-04-27T06:47:31.168Z,99429.97
2023-04-27T06:50:04.456Z,99432.91
2023-04-27T06:52:37.224Z,99437.28
2023-04-27T06:55:10.493Z,99435.28
2023-04-27T06:57:43.450Z,99432.63
2023-04-27T07:00:16.462Z,99441.63
2023-04-27T07:02:51.537Z,99443.59
2023-04-27T07:05:25.020Z,99437.28
2023-04-27T07:07:58.480Z,99436.00
2023-04-27T07:10:32.362Z,99442.03
2023-04-27T07:13:07.285Z,99440.06
2023-04-27T07:15:42.253Z,99436.13
2023-04-27T07:18:16.961Z,99442.47
2023-04-27T07:20:49.968Z,99435.81
2023-04-27T07:23:23.845Z,99441.75
2023-04-27T07:25:57.572Z,99450.78
2023-04-27T07:28:30.524Z,99446.00
2023-04-27T07:31:05.340Z,99446.84
2023-04-27T07:33:40.035Z,99446.66
2023-04-27T07:36:13.084Z,99454.25
2023-04-27T07:38:45.990Z,99460.72
2023-04-27T07:41:20.334Z,99453.84
2023-04-27T07:43:53.134Z,99456.94
2023-04-27T07:46:26.840Z,99461.56
2023-04-27T07:49:01.354Z,99471.41
2023-04-27T07:51:34.754Z,99462.28
2023-04-27T07:54:07.878Z,99465.50
2023-04-27T07:56:41.780Z,99468.31
2023-04-27T07:59:15.649Z,99473.41
2023-04-27T08:01:49.449Z,99459.63
2023-04-27T08:04:24.498Z,99460.59
2023-04-27T08:06:58.042Z,99470.25
2023-04-27T08:09:32.361Z,99480.56
2023-04-27T08:12:05.648Z,99477.97
2023-04-27T08:14:38.619Z,99478.13
2023-04-27T08:17:12.470Z,99474.16
2023-04-27T08:19:46.694Z,99487.16
2023-04-27T08:22:19.660Z,99478.13
2023-04-27T08:24:52.751Z,99486.31
2023-04-27T08:27:25.751Z,99475.66
2023-04-27T08:29:58.813Z,99479.00
2023-04-27T08:32:32.189Z,99475.91
2023-04-27T08:35:07.792Z,99477.88
2023-04-27T08:37:40.941Z,99476.34
2023-04-27T08:40:14.083Z,99469.56
2023-04-27T08:42:56.065Z,99471.28
2023-04-27T08:45:29.887Z,99470.84
2023-04-27T08:48:02.839Z,99483.22
2023-04-27T08:50:39.783Z,99475.91
2023-04-27T08:53:19.415Z,99478.03
2023-04-27T08:55:52.569Z,99479.00
2023-04-27T08:58:37.127Z,99470.59
2023-04-27T09:01:10.166Z,99473.22
2023-04-27T09:03:43.590Z,99469.44
2023-04-27T09:06:18.766Z,99466.31
2023-04-27T09:08:52.156Z,99462.09
2023-04-27T09:11:30.031Z,99461.84
2023-04-27T09:14:03.834Z,99457.41
2023-04-27T09:16:36.897Z,99455.69
2023-04-27T09:19:10.305Z,99452.94
2023-04-27T09:21:48.367Z,99456.34
2023-04-27T09:24:21.361Z,99444.28
2023-04-27T09:26:54.224Z,99439.31
2023-04-27T09:29:33.482Z,99445.75
2023-04-27T09:32:17.112Z,99435.81
2023-04-27T09:34:50.221Z,99439.13
2023-04-27T09:37:27.076Z,99439.19
2023-04-27T09:40:03.023Z,99437.25
2023-04-27T09:42:37.052Z,99444.88
2023-04-27T09:45:12.154Z,99437.28
2023-04-27T09:47:45.559Z,99441.91
2023-04-27T09:50:21.812Z,99437.66
2023-04-27T09:52:56.405Z,99441.03
2023-04-27T09:55:32.178Z,99435.50
2023-04-27T09:58:12.391Z,99436.00
2023-04-27T10:00:49.922Z,99426.63
2023-04-27T10:03:24.895Z,99429.78
2023-04-27T10:06:27.635Z,99439.94
2023-04-27T10:09:06.239Z,99439.81
2023-04-27T10:11:40.622Z,99439.34
2023-04-27T10:14:18.474Z,99407.28
2023-04-27T10:16:53.126Z,99439.44
2023-04-27T10:19:27.169Z,99436.41
2023-04-27T10:22:03.470Z,99438.03
2023-04-27T10:24:38.957Z,99440.19
2023-04-27T10:27:14.121Z,99439.66
2023-04-27T10:29:48.107Z,99432.16
2023-04-27T10:32:23.262Z,99437.34
2023-04-27T10:35:06.405Z,99439.16
2023-04-27T10:37:40.195Z,99442.41
2023-04-27T10:40:17.498Z,99439.50
2023-04-27T10:42:50.587Z,99438.97
2023-04-27T10:45:30.912Z,99434.97
2023-04-27T10:48:04.631Z,99439.50
2023-04-27T10:50:38.161Z,99433.38
2023-04-27T10:53:12.490Z,99429.09
2023-04-27T10:55:47.023Z,99437.41
2023-04-27T10:58:24.170Z,99431.84
2023-04-27T11:00:58.316Z,99439.84
2023-04-27T11:03:31.814Z,99434.00
2023-04-27T11:06:07.434Z,99429.47
2023-04-27T11:08:45.160Z,99436.47
2023-04-27T11:11:19.322Z,99431.13
2023-04-27T11:13:52.968Z,99430.03
2023-04-27T11:16:26.432Z,99423.00
2023-04-27T11:19:05.337Z,99424.28
2023-04-27T11:21:38.859Z,99428.28
2023-04-27T11:24:13.864Z,99420.41
2023-04-27T11:26:54.409Z,99422.56
2023-04-27T11:29:27.373Z,99428.41
2023-04-27T11:32:00.316Z,99437.72
2023-04-27T11:34:37.473Z,99429.38
2023-04-27T11:37:18.533Z,99421.56
2023-04-27T11:39:52.677Z,99428.06
2023-04-27T11:42:28.631Z,99434.47
2023-04-27T11:45:06.089Z,99440.91
2023-04-27T11:47:41.068Z,99436.25
2023-04-27T11:50:14.499Z,99436.00
2023-04-27T11:52:50.229Z,99440.00
2023-04-27T11:55:24.536Z,99435.41
2023-04-27T11:58:00.150Z,99433.81
2023-04-27T12:00:33.026Z,99430.19
2023-04-27T12:03:06.372Z,99429.00
2023-04-27T12:05:48.886Z,99431.63
2023-04-27T12:08:22.003Z,99424.78
2023-04-27T12:10:54.987Z,99445.88
2023-04-27T12:13:30.599Z,99442.28
2023-04-27T12:16:03.672Z,99446.41
2023-04-27T12:18:36.844Z,99439.56
2023-04-27T12:21:10.295Z,99447.59
2023-04-27T12:23:43.634Z,99437.19
2023-04-27T12:26:16.664Z,99439.94
2023-04-27T12:28:51.243Z,99446.13
2023-04-27T12:31:27.574Z,99445.41
2023-04-27T12:34:01.222Z,99449.13
2023-04-27T12:36:34.153Z,99444.03
2023-04-27T12:39:16.991Z,99452.25
2023-04-27T12:41:50.859Z,99445.16
2023-04-27T12:44:25.557Z,99453.94
2023-04-27T12:46:58.346Z,99436.00
2023-04-27T12:49:31.604Z,99441.69
2023-04-27T12:52:04.537Z,99443.75
2023-04-27T12:54:37.630Z,99449.63
2023-04-27T12:57:10.881Z,99447.34
2023-04-27T12:59:46.905Z,99444.97
2023-04-27T13:02:19.715Z,99442.56
2023-04-27T13:04:52.755Z,99453.41
2023-04-27T13:07:25.928Z,99446.38
2023-04-27T13:09:58.954Z,99443.94
2023-04-27T13:12:32.698Z,99448.94
2023-04-27T13:15:07.978Z,99437.38
2023-04-27T13:17:43.139Z,99443.22
2023-04-27T13:20:17.141Z,99453.00
2023-04-27T13:22:50.053Z,99443.38
2023-04-27T13:25:23.721Z,99441.31
2023-04-27T13:27:58.082Z,99446.75
2023-04-27T13:30:33.393Z,99441.75
2023-04-27T13:33:21.120Z,99443.78
2023-04-27T13:35:55.858Z,99448.94
2023-04-27T13:38:28.927Z,99450.25
2023-04-27T13:41:01.773Z,99450.94
2023-04-27T13:43:35.702Z,99448.16
2023-04-27T13:46:10.170Z,99452.41
2023-04-27T13:48:43.736Z,99452.97
2023-04-27T13:51:16.639Z,99447.44
2023-04-27T13:53:49.681Z,99461.91
2023-04-27T13:56:22.757Z,99455.16
2023-04-27T13:58:56.006Z,99468.63
2023-04-27T14:01:30.833Z,99456.69
2023-04-27T14:04:04.242Z,99466.81
2023-04-27T14:06:37.348Z,99461.00
2023-04-27T14:09:10.725Z,99458.88
2023-04-27T14:11:55.674Z,99456.69
2023-04-27T14:14:29.987Z,99453.03
2023-04-27T14:17:04.527Z,99453.75
2023-04-27T14:19:37.623Z,99442.63
2023-04-27T14:22:10.607Z,99447.72
2023-04-27T14:24:43.681Z,99442.69
2023-04-27T14:27:17.156Z,99444.25
2023-04-27T14:29:50.373Z,99446.84
2023-04-27T14:32:24.809Z,99443.00
2023-04-27T14:34:57.794Z,99448.97
2023-04-27T14:37:30.603Z,99448.47
2023-04-27T14:40:05.382Z,99443.31
2023-04-27T14:42:38.594Z,99457.31
2023-04-27T14:45:12.272Z,99442.69
2023-04-27T14:47:46.744Z,99450.13
2023-04-27T14:50:19.628Z,99450.13
2023-04-27T14:52:52.469Z,99454.06
2023-04-27T14:55:25.576Z,99449.59
2023-04-27T14:57:58.470Z,99450.50
2023-04-27T15:00:31.827Z,99446.13
2023-04-27T15:03:06.579Z,99445.31
2023-04-27T15:05:39.651Z,99443.31
2023-04-27T15:08:12.474Z,99447.19
2023-04-27T15:10:45.512Z,99444.91
2023-04-27T15:13:18.649Z,99444.69
2023-04-27T15:15:54.648Z,99445.63
2023-04-27T15:18:29.002Z,99438.13
2023-04-27T15:21:01.990Z,99448.41
2023-04-27T15:23:37.163Z,99440.25
2023-04-27T15:26:10.131Z,99440.47
2023-04-27T15:28:44.145Z,99441.63
2023-04-27T15:31:17.237Z,99449.72
2023-04-27T15:33:53.774Z,99455.25
2023-04-27T15:36:28.506Z,99457.56
2023-04-27T15:39:01.303Z,99459.34
2023-04-27T15:41:34.284Z,99468.41
2023-04-27T15:44:07.650Z,99466.50
2023-04-27T15:46:40.852Z,99475.94
2023-04-27T15:49:15.506Z,99483.00
2023-04-27T15:51:49.394Z,99476.13
2023-04-27T15:54:22.272Z,99482.78
2023-04-27T15:56:54.983Z,99477.53
2023-04-27T15:59:28.050Z,99482.06
2023-04-27T16:02:01.322Z,99488.63
2023-04-27T16:04:35.976Z,99491.47
2023-04-27T16:07:09.210Z,99488.69
2023-04-27T16:09:42.074Z,99496.91
2023-04-27T16:12:14.845Z,99498.72
2023-04-27T16:14:47.908Z,99501.03
2023-04-27T16:17:21.120Z,99503.34
2023-04-27T16:19:55.603Z,99505.78
2023-04-27T16:22:28.535Z,99515.63
2023-04-27T16:25:02.850Z,99513.13
2023-04-27T16:27:35.754Z,99517.75
2023-04-27T16:30:09.755Z,99513.53
2023-04-27T16:32:43.040Z,99523.97
2023-04-27T16:35:17.291Z,99521.09
2023-04-27T16:37:50.755Z,99520.25
2023-04-27T16:40:23.601Z,99521.69
2023-04-27T16:42:56.589Z,99523.53
2023-04-27T16:45:29.734Z,99517.31
2023-04-27T16:48:03.433Z,99528.66
2023-04-27T16:50:37.849Z,99533.59
2023-04-27T16:53:13.703Z,99533.41
2023-04-27T16:55:47.242Z,99536.41
2023-04-27T16:58:20.825Z,99531.41
2023-04-27T17:00:54.080Z,99541.00
2023-04-27T17:03:27.809Z,99543.47
2023-04-27T17:06:03.113Z,99547.59
2023-04-27T17:08:35.908Z,99550.13
2023-04-27T17:11:09.204Z,99552.47
2023-04-27T17:13:42.002Z,99555.63
2023-04-27T17:16:16.158Z,99555.34
2023-04-27T17:18:49.626Z,99563.00
2023-04-27T17:21:25.141Z,99556.78
2023-04-27T17:23:57.960Z,99557.84
2023-04-27T17:26:32.724Z,99566.97
2023-04-27T17:29:05.718Z,99567.91
2023-04-27T17:31:39.037Z,99575.94
2023-04-27T17:34:12.647Z,99578.75
2023-04-27T17:36:47.384Z,99585.75
2023-04-27T17:39:22.571Z,99594.25
2023-04-27T17:41:55.389Z,99589.91
2023-04-27T17:44:28.329Z,99595.34
2023-04-27T17:47:01.895Z,99596.47
2023-04-27T17:49:35.447Z,99595.28
2023-04-27T17:52:09.864Z,99605.38
2023-04-27T17:54:43.403Z,99612.03
2023-04-27T17:57:16.378Z,99615.25
2023-04-27T17:59:50.098Z,99625.66
2023-04-27T18:02:23.232Z,99628.22
2023-04-27T18:04:57.148Z,99629.00
2023-04-27T18:07:31.887Z,99636.94
2023-04-27T18:10:05.019Z,99646.78
2023-04-27T18:12:37.955Z,99639.41
2023-04-27T18:15:11.398Z,99651.50
2023-04-27T18:17:45.275Z,99654.19
2023-04-27T18:20:18.337Z,99657.03
2023-04-27T18:22:53.018Z,99647.09
2023-04-27T18:25:26.633Z,99652.09
2023-04-27T18:28:00.478Z,99655.59
2023-04-27T18:30:33.566Z,99657.88
2023-04-27T18:33:07.134Z,99657.31
2023-04-27T18:35:40.138Z,99656.22
2023-04-27T18:38:14.356Z,99660.06
2023-04-27T18:40:47.253Z,99651.44
2023-04-27T18:43:20.526Z,99658.47
2023-04-27T18:45:53.749Z,99659.16
2023-04-27T18:48:27.000Z,99673.38
2023-04-27T18:51:00.296Z,99676.63
2023-04-27T18:53:34.479Z,99687.75
2023-04-27T18:56:08.896Z,99697.09
2023-04-27T18:58:42.448Z,99695.53
2023-04-27T19:01:19.567Z,99704.34
2023-04-27T19:03:53.075Z,99705.47
2023-04-27T19:06:26.530Z,99710.69
2023-04-27T19:09:01.122Z,99707.75
2023-04-27T19:11:34.456Z,99705.06
2023-04-27T19:14:07.514Z,99716.59
2023-04-27T19:16:40.924Z,99707.25
2023-04-27T19:19:14.398Z,99704.31
2023-04-27T19:21:48.017Z,99712.34
2023-04-27T19:24:22.335Z,99709.41
2023-04-27T19:26:56.017Z,99710.84
2023-04-27T19:29:29.242Z,99709.53
2023-04-27T19:32:02.385Z,99717.16
2023-04-27T19:34:36.125Z,99716.19
2023-04-27T19:37:09.343Z,99722.91
2023-04-27T19:39:46.366Z,99727.63
2023-04-27T19:42:19.569Z,99719.53
2023-04-27T19:44:52.401Z,99723.38
2023-04-27T19:47:27.652Z,99726.25
2023-04-27T19:50:00.831Z,99735.66
2023-04-27T19:52:33.726Z,99735.78
2023-04-27T19:55:08.714Z,99729.97
2023-04-27T19:57:41.735Z,99738.28
2023-04-27T20:00:15.269Z,99734.84
2023-04-27T20:02:48.874Z,99737.03
2023-04-27T20:05:22.309Z,99733.63
2023-04-27T20:07:55.535Z,99738.50
2023-04-27T20:10:29.866Z,99734.97
2023-04-27T20:13:02.967Z,99728.78
2023-04-27T20:15:37.681Z,99735.66
2023-04-27T20:18:11.491Z,99737.97
2023-04-27T20:20:45.357Z,99734.06
2023-04-27T20:23:18.218Z,99742.09
2023-04-27T20:25:52.876Z,99739.59
2023-04-27T20:28:25.851Z,99741.28
2023-04-27T20:30:58.863Z,99741.47
2023-04-27T20:33:32.164Z,99740.50
2023-04-27T20:36:16.208Z,99747.28
2023-04-27T20:38:49.861Z,99742.56
2023-04-27T20:41:25.793Z,99747.31
2023-04-27T20:44:00.282Z,99744.91
2023-04-27T20:46:33.341Z,99745.47
2023-04-27T20:49:06.447Z,99737.44
2023-04-27T20:51:39.365Z,99741.94
2023-04-27T20:54:12.921Z,99746.16
2023-04-27T20:56:47.638Z,99746.88
2023-04-27T20:59:20.649Z,99745.25
2023-04-27T21:01:53.597Z,99753.25
2023-04-27T21:04:26.597Z,99750.47
2023-04-27T21:06:59.565Z,99753.66
2023-04-27T21:09:32.505Z,99752.34
2023-04-27T21:12:07.298Z,99754.72
2023-04-27T21:14:40.592Z,99761.44
2023-04-27T21:17:15.203Z,99764.66
2023-04-27T21:19:48.024Z,99760.09
2023-04-27T21:22:20.949Z,99754.59
2023-04-27T21:24:53.761Z,99759.56
2023-04-27T21:27:28.746Z,99761.31
2023-04-27T21:30:03.440Z,99758.88
2023-04-27T21:32:36.405Z,99769.38
2023-04-27T21:35:10.110Z,99769.44
2023-04-27T21:37:43.570Z,99772.25
2023-04-27T21:40:16.458Z,99775.72
2023-04-27T21:42:52.398Z,99774.28
2023-04-27T21:45:25.707Z,99781.53
2023-04-27T21:47:58.553Z,99781.28
2023-04-27T21:50:31.621Z,99785.44
2023-04-27T21:53:04.426Z,99782.25
2023-04-27T21:55:37.367Z,99781.31
2023-04-27T21:58:11.696Z,99774.09
2023-04-27T22:00:45.418Z,99775.78
2023-04-27T22:03:18.707Z,99777.41
2023-04-27T22:05:52.908Z,99781.09
2023-04-27T22:08:26.026Z,99793.81
2023-04-27T22:10:58.999Z,99788.03
2023-04-27T22:13:33.473Z,99794.81
2023-04-27T22:16:06.722Z,99794.25
2023-04-27T22:18:39.791Z,99800.38
2023-04-27T22:21:13.719Z,99799.53
2023-04-27T22:23:48.338Z,99796.72
2023-04-27T22:26:21.241Z,99783.47
2023-04-27T22:28:55.499Z,99793.84
2023-04-27T22:31:28.607Z,99794.44
2023-04-27T22:34:03.389Z,99800.38
2023-04-27T22:36:36.197Z,99805.59
2023-04-27T22:39:09.503Z,99807.06
2023-04-27T22:41:42.583Z,99803.06
2023-04-27T22:44:17.750Z,99803.19
2023-04-27T22:46:50.998Z,99805.47
2023-04-27T22:49:24.211Z,99799.19
2023-04-27T22:51:57.767Z,99794.94
2023-04-27T22:54:30.948Z,99792.28
2023-04-27T22:57:04.477Z,99792.19
2023-04-27T22:59:39.226Z,99792.06
2023-04-27T23:02:12.221Z,99731.19
2023-04-27T23:04:45.436Z,99794.88
2023-04-27T23:07:18.526Z,99791.00
2023-04-27T23:09:51.541Z,99789.16
2023-04-27T23:12:27.014Z,99797.16
2023-04-27T23:15:01.841Z,99796.19
2023-04-27T23:17:34.729Z,99793.75
2023-04-27T23:20:24.063Z,99797.97
2023-04-27T23:22:57.508Z,99793.63
2023-04-27T23:25:32.666Z,99794.56
2023-04-27T23:28:05.484Z,99794.50
2023-04-27T23:30:40.016Z,99792.91
2023-04-27T23:33:13.035Z,99802.16
2023-04-27T23:35:46.210Z,99789.94
2023-04-27T23:38:19.341Z,99785.19
2023-04-27T23:40:52.648Z,99786.72
2023-04-27T23:43:25.549Z,99794.56
2023-04-27T23:45:59.808Z,99795.50
2023-04-27T23:48:32.729Z,99785.88
2023-04-27T23:51:06.115Z,99790.13
2023-04-27T23:53:39.517Z,99795.31
2023-04-27T23:56:16.901Z,99793.41
2023-04-27T23:58:49.778Z,99791.38
